Time;durP1;ratioP1;P1;durP2;ratioP2;P2;SDS_P1;SDS_P2;PMS_P1;PMS_P2;Temp;Humidity;BMP_temperature;BMP_pressure;BME280_temperature;BME280_humidity;BME280_pressure;Samples;Min_cycle;Max_cycle;Signal;HPM_P1;HPM_P2
2024/03/23 00:00:54;;;;;;;;;;;17.90;63.60;;;;;;4999399;28;1419;-70
2024/03/23 00:03:20;;;;;;;;;;;17.90;63.60;;;;;;4999221;28;1049;-69
2024/03/23 00:05:46;;;;;;;;;;;17.90;63.60;;;;;;5000188;28;1911;-69
2024/03/23 00:08:12;;;;;;;;;;;17.80;63.60;;;;;;4997988;28;1357;-69
2024/03/23 00:10:38;;;;;;;;;;;17.90;63.60;;;;;;4998553;28;1129;-69
2024/03/23 00:13:04;;;;;;;;;;;17.80;63.60;;;;;;5000655;28;1464;-69
2024/03/23 00:15:31;;;;;;;;;;;17.80;63.60;;;;;;5033278;28;1512;-71
2024/03/23 00:17:57;;;;;;;;;;;17.80;63.60;;;;;;5000095;28;1543;-69
2024/03/23 00:20:23;;;;;;;;;;;17.80;63.60;;;;;;4997038;28;1440;-69
2024/03/23 00:22:49;;;;;;;;;;;17.80;63.60;;;;;;4997948;28;1456;-70
2024/03/23 00:25:15;;;;;;;;;;;17.80;63.60;;;;;;5030700;28;1475;-70
2024/03/23 00:27:42;;;;;;;;;;;17.80;63.70;;;;;;5001605;28;1926;-70
2024/03/23 00:30:08;;;;;;;;;;;17.80;63.60;;;;;;4998631;28;1283;-69
2024/03/23 00:32:34;;;;;;;;;;;17.80;63.70;;;;;;5000972;28;1500;-70
2024/03/23 00:35:00;;;;;;;;;;;17.80;63.70;;;;;;4996809;28;1273;-69
2024/03/23 00:37:26;;;;;;;;;;;17.80;63.70;;;;;;5000042;28;1389;-70
2024/03/23 00:39:52;;;;;;;;;;;17.80;63.80;;;;;;5001835;28;1766;-70
2024/03/23 00:42:18;;;;;;;;;;;17.80;63.70;;;;;;5000322;28;1093;-70
2024/03/23 00:44:43;;;;;;;;;;;17.80;63.70;;;;;;5030372;28;1491;-69
2024/03/23 00:47:09;;;;;;;;;;;17.80;63.70;;;;;;4997490;28;1950;-69
2024/03/23 00:49:35;;;;;;;;;;;17.80;63.70;;;;;;5000469;28;1241;-70
2024/03/23 00:52:01;;;;;;;;;;;17.80;63.70;;;;;;5028847;28;1561;-68
2024/03/23 00:54:27;;;;;;;;;;;17.80;63.70;;;;;;4995988;28;1498;-69
2024/03/23 00:56:53;;;;;;;;;;;17.80;63.80;;;;;;5031110;28;1497;-69
2024/03/23 00:59:18;;;;;;;;;;;17.80;63.80;;;;;;4999973;28;1606;-69
2024/03/23 01:01:43;;;;;;;;;;;17.80;63.80;;;;;;4998502;28;1367;-71
2024/03/23 01:04:09;;;;;;;;;;;17.80;63.80;;;;;;5028059;28;1267;-70
2024/03/23 01:06:34;;;;;;;;;;;17.80;63.80;;;;;;4997988;28;1902;-70
2024/03/23 01:09:00;;;;;;;;;;;17.80;63.80;;;;;;5030813;28;962;-70
2024/03/23 01:11:26;;;;;;;;;;;17.80;63.80;;;;;;4997477;28;1461;-70
2024/03/23 01:13:54;;;;;;;;;;;17.80;63.80;;;;;;4998688;28;1819;-70
2024/03/23 01:16:20;;;;;;;;;;;17.80;63.80;;;;;;4996478;28;1294;-70
2024/03/23 01:18:45;;;;;;;;;;;17.80;63.80;;;;;;5007142;28;1312;-70
2024/03/23 01:21:11;;;;;;;;;;;17.80;63.80;;;;;;5000200;28;1055;-71
2024/03/23 01:23:36;;;;;;;;;;;17.80;63.80;;;;;;4998511;28;1443;-70
2024/03/23 01:26:02;;;;;;;;;;;17.80;63.80;;;;;;4995452;28;1918;-71
2024/03/23 01:28:27;;;;;;;;;;;17.80;63.90;;;;;;4997978;28;1286;-68
2024/03/23 01:30:53;;;;;;;;;;;17.80;63.90;;;;;;5003088;28;1340;-72
2024/03/23 01:33:18;;;;;;;;;;;17.80;63.90;;;;;;5002735;28;1226;-71
2024/03/23 01:35:43;;;;;;;;;;;17.80;63.90;;;;;;5000036;28;1500;-72
2024/03/23 01:38:09;;;;;;;;;;;17.80;63.90;;;;;;5002646;28;1081;-70
2024/03/23 01:40:34;;;;;;;;;;;17.80;63.90;;;;;;5004267;28;1395;-70
2024/03/23 01:43:03;;;;;;;;;;;17.80;63.90;;;;;;5003814;28;1233;-71
2024/03/23 01:45:29;;;;;;;;;;;17.80;63.90;;;;;;5033474;28;1573;-70
2024/03/23 01:47:54;;;;;;;;;;;17.80;63.90;;;;;;4993122;28;1906;-69
2024/03/23 01:50:20;;;;;;;;;;;17.80;63.90;;;;;;5000809;28;1482;-70
2024/03/23 01:52:46;;;;;;;;;;;17.80;63.90;;;;;;5033543;28;1380;-70
2024/03/23 01:55:12;;;;;;;;;;;17.70;63.90;;;;;;5030737;28;1569;-72
2024/03/23 01:57:37;;;;;;;;;;;17.80;63.90;;;;;;5000355;28;1618;-71
2024/03/23 02:00:03;;;;;;;;;;;17.80;64.00;;;;;;5000386;28;1357;-69
2024/03/23 02:02:28;;;;;;;;;;;17.80;63.90;;;;;;4999835;28;1322;-69
2024/03/23 02:04:54;;;;;;;;;;;17.70;63.90;;;;;;5000346;28;1503;-71
2024/03/23 02:07:19;;;;;;;;;;;17.70;64.70;;;;;;4999876;28;1911;-72
2024/03/23 02:09:45;;;;;;;;;;;17.80;64.00;;;;;;5001602;28;1574;-72
2024/03/23 02:12:10;;;;;;;;;;;17.80;64.00;;;;;;5034353;28;1308;-71
2024/03/23 02:14:36;;;;;;;;;;;17.70;63.90;;;;;;5001387;28;1463;-71
2024/03/23 02:17:01;;;;;;;;;;;17.80;64.00;;;;;;5002553;28;1478;-71
2024/03/23 02:19:27;;;;;;;;;;;17.70;63.90;;;;;;5034185;28;1552;-72
2024/03/23 02:21:52;;;;;;;;;;;17.70;63.90;;;;;;4999813;28;1259;-71
2024/03/23 02:24:17;;;;;;;;;;;17.80;64.00;;;;;;5034005;28;1468;-71
2024/03/23 02:26:43;;;;;;;;;;;17.70;64.00;;;;;;5003120;28;1910;-71
2024/03/23 02:29:09;;;;;;;;;;;17.70;64.00;;;;;;5023614;28;1420;-69
2024/03/23 02:31:34;;;;;;;;;;;17.70;63.90;;;;;;5000720;28;1481;-68
2024/03/23 02:34:00;;;;;;;;;;;17.70;64.00;;;;;;5000097;28;1598;-69
2024/03/23 02:36:26;;;;;;;;;;;17.70;64.00;;;;;;5002540;28;1140;-68
2024/03/23 02:38:51;;;;;;;;;;;17.70;64.00;;;;;;5035609;28;1617;-69
2024/03/23 02:41:22;;;;;;;;;;;17.70;64.00;;;;;;5001807;28;1242;-69
2024/03/23 02:43:51;;;;;;;;;;;17.70;64.00;;;;;;4998777;28;1520;-68
2024/03/23 02:46:16;;;;;;;;;;;17.70;64.00;;;;;;5032716;28;1993;-69
2024/03/23 02:48:41;;;;;;;;;;;17.70;64.00;;;;;;5033829;28;1125;-69
2024/03/23 02:51:07;;;;;;;;;;;17.70;64.00;;;;;;5032380;28;1491;-69
2024/03/23 02:53:32;;;;;;;;;;;17.70;64.00;;;;;;5000341;28;1135;-69
2024/03/23 02:55:58;;;;;;;;;;;17.70;64.00;;;;;;5034493;28;1542;-69
2024/03/23 02:58:24;;;;;;;;;;;17.70;64.00;;;;;;5001701;28;1247;-69
2024/03/23 03:00:49;;;;;;;;;;;17.70;64.00;;;;;;5002400;28;1632;-70
2024/03/23 03:03:15;;;;;;;;;;;17.70;64.00;;;;;;5003986;28;1312;-71
2024/03/23 03:05:40;;;;;;;;;;;17.70;64.80;;;;;;5003990;28;1977;-71
2024/03/23 03:08:06;;;;;;;;;;;17.70;64.10;;;;;;5035057;28;1336;-71
2024/03/23 03:10:34;;;;;;;;;;;17.70;64.10;;;;;;5029958;28;1660;-71
2024/03/23 03:13:00;;;;;;;;;;;17.70;64.10;;;;;;5000335;28;1253;-71
2024/03/23 03:15:25;;;;;;;;;;;17.70;64.00;;;;;;4999573;28;1459;-71
2024/03/23 03:17:51;;;;;;;;;;;17.70;64.10;;;;;;5000766;28;1676;-71
2024/03/23 03:20:17;;;;;;;;;;;17.70;64.10;;;;;;5019008;28;1253;-71
2024/03/23 03:22:43;;;;;;;;;;;17.70;64.10;;;;;;5034523;28;1407;-71
2024/03/23 03:25:09;;;;;;;;;;;17.70;64.10;;;;;;5002189;28;1537;-70
2024/03/23 03:27:34;;;;;;;;;;;17.70;64.10;;;;;;5033507;28;1906;-69
2024/03/23 03:30:02;;;;;;;;;;;17.70;64.10;;;;;;4999843;28;1208;-69
2024/03/23 03:32:30;;;;;;;;;;;17.70;64.10;;;;;;5000540;28;1114;-69
2024/03/23 03:34:55;;;;;;;;;;;17.70;64.10;;;;;;5000710;28;1531;-69
2024/03/23 03:37:21;;;;;;;;;;;17.70;64.10;;;;;;5001428;28;1712;-69
2024/03/23 03:39:46;;;;;;;;;;;17.70;64.90;;;;;;5032385;28;1549;-71
2024/03/23 03:42:12;;;;;;;;;;;17.70;64.10;;;;;;4997259;28;1453;-71
2024/03/23 03:44:37;;;;;;;;;;;17.70;64.10;;;;;;4997176;28;1373;-70
2024/03/23 03:47:03;;;;;;;;;;;17.70;64.30;;;;;;5029328;28;1959;-69
2024/03/23 03:49:28;;;;;;;;;;;17.70;64.10;;;;;;5001793;28;1188;-69
2024/03/23 03:51:54;;;;;;;;;;;17.70;64.10;;;;;;4998248;28;1718;-71
2024/03/23 03:54:19;;;;;;;;;;;17.70;64.10;;;;;;4997821;28;1269;-69
2024/03/23 03:56:45;;;;;;;;;;;17.70;64.20;;;;;;5000331;28;1489;-71
2024/03/23 03:59:10;;;;;;;;;;;17.70;64.10;;;;;;4998702;28;1235;-71
2024/03/23 04:01:35;;;;;;;;;;;17.70;64.10;;;;;;4997026;28;1590;-71
2024/03/23 04:04:01;;;;;;;;;;;17.70;64.20;;;;;;4998058;28;1396;-71
2024/03/23 04:06:27;;;;;;;;;;;17.70;64.20;;;;;;5028663;28;1922;-71
2024/03/23 04:08:52;;;;;;;;;;;17.70;64.20;;;;;;5000300;28;1424;-71
2024/03/23 04:11:18;;;;;;;;;;;17.70;64.20;;;;;;4999079;28;1273;-71
2024/03/23 04:13:43;;;;;;;;;;;17.70;64.20;;;;;;5029839;28;1415;-71
2024/03/23 04:16:09;;;;;;;;;;;17.70;64.20;;;;;;5002502;28;1387;-71
2024/03/23 04:18:34;;;;;;;;;;;17.70;64.20;;;;;;5000149;28;1596;-71
2024/03/23 04:21:00;;;;;;;;;;;17.70;64.20;;;;;;4998462;28;959;-71
2024/03/23 04:23:25;;;;;;;;;;;17.70;64.20;;;;;;4996582;28;1010;-71
2024/03/23 04:25:53;;;;;;;;;;;17.70;64.20;;;;;;5030112;28;1902;-71
2024/03/23 04:28:19;;;;;;;;;;;17.70;64.20;;;;;;5029799;28;1184;-71
2024/03/23 04:30:44;;;;;;;;;;;17.70;64.20;;;;;;5031664;28;979;-71
2024/03/23 04:33:10;;;;;;;;;;;17.70;64.20;;;;;;5000517;28;920;-71
2024/03/23 04:35:35;;;;;;;;;;;17.70;64.20;;;;;;4998534;28;1297;-71
2024/03/23 04:38:01;;;;;;;;;;;17.70;64.20;;;;;;4999088;28;1478;-71
2024/03/23 04:40:26;;;;;;;;;;;17.70;64.20;;;;;;4999382;28;1270;-71
2024/03/23 04:42:52;;;;;;;;;;;17.70;64.20;;;;;;4997806;28;1536;-71
2024/03/23 04:45:17;;;;;;;;;;;17.70;64.30;;;;;;4997629;28;1611;-72
2024/03/23 04:47:43;;;;;;;;;;;17.70;64.30;;;;;;5028603;28;1890;-71
2024/03/23 04:50:10;;;;;;;;;;;17.70;64.30;;;;;;5006518;28;1574;-71
2024/03/23 04:52:36;;;;;;;;;;;17.70;64.30;;;;;;5012314;28;1359;-71
2024/03/23 04:55:01;;;;;;;;;;;17.70;65.00;;;;;;4998125;28;1647;-71
2024/03/23 04:57:26;;;;;;;;;;;17.70;64.20;;;;;;5000135;28;1018;-71
2024/03/23 04:59:52;;;;;;;;;;;17.70;64.20;;;;;;5001895;28;1462;-72
2024/03/23 05:02:17;;;;;;;;;;;17.70;64.30;;;;;;4997816;28;1631;-71
2024/03/23 05:04:43;;;;;;;;;;;17.70;64.30;;;;;;5032583;28;1292;-71
2024/03/23 05:07:08;;;;;;;;;;;17.70;64.30;;;;;;5036289;28;1926;-71
2024/03/23 05:09:34;;;;;;;;;;;17.70;64.30;;;;;;5000369;28;1552;-71
2024/03/23 05:12:03;;;;;;;;;;;17.70;64.20;;;;;;5034050;28;1866;-71
2024/03/23 05:14:28;;;;;;;;;;;17.70;64.20;;;;;;5033487;28;1264;-71
2024/03/23 05:16:54;;;;;;;;;;;17.70;64.10;;;;;;5020680;28;1752;-71
2024/03/23 05:19:19;;;;;;;;;;;17.70;64.10;;;;;;5002043;28;1518;-71
2024/03/23 05:21:45;;;;;;;;;;;17.70;64.00;;;;;;5033945;28;1199;-71
2024/03/23 05:24:11;;;;;;;;;;;17.80;63.90;;;;;;5034186;28;1260;-71
2024/03/23 05:26:37;;;;;;;;;;;17.80;63.80;;;;;;5004049;28;1902;-71
2024/03/23 05:29:02;;;;;;;;;;;17.80;63.70;;;;;;5002823;28;1445;-70
2024/03/23 05:31:28;;;;;;;;;;;17.90;63.70;;;;;;5001684;28;1578;-71
2024/03/23 05:33:54;;;;;;;;;;;17.90;63.60;;;;;;4998601;28;1659;-71
2024/03/23 05:36:20;;;;;;;;;;;17.90;63.50;;;;;;5000186;28;1476;-71
2024/03/23 05:38:45;;;;;;;;;;;17.90;63.40;;;;;;5034217;28;1563;-70
2024/03/23 05:41:10;;;;;;;;;;;17.90;63.30;;;;;;5003160;28;1487;-70
2024/03/23 05:43:36;;;;;;;;;;;17.90;63.20;;;;;;5032449;28;1469;-70
2024/03/23 05:46:02;;;;;;;;;;;17.90;63.20;;;;;;5000238;28;1903;-71
2024/03/23 05:48:27;;;;;;;;;;;18.00;63.20;;;;;;5001759;28;1315;-70
2024/03/23 05:50:53;;;;;;;;;;;18.00;63.10;;;;;;5032714;28;1788;-71
2024/03/23 05:53:21;;;;;;;;;;;18.00;63.00;;;;;;5036246;28;1674;-70
2024/03/23 05:55:50;;;;;;;;;;;18.00;63.00;;;;;;5033057;28;1483;-71
2024/03/23 05:58:16;;;;;;;;;;;18.10;63.10;;;;;;4998339;28;1413;-71
2024/03/23 06:00:44;;;;;;;;;;;18.10;63.00;;;;;;5026331;28;1196;-70
2024/03/23 06:03:13;;;;;;;;;;;18.10;62.90;;;;;;5001295;28;1263;-70
2024/03/23 06:05:38;;;;;;;;;;;18.10;62.90;;;;;;5033137;28;1326;-71
2024/03/23 06:08:04;;;;;;;;;;;18.10;62.80;;;;;;4987177;28;1902;-70
2024/03/23 06:10:29;;;;;;;;;;;18.10;62.80;;;;;;5032859;28;1184;-70
2024/03/23 06:12:55;;;;;;;;;;;18.10;62.80;;;;;;5032281;28;1470;-71
2024/03/23 06:15:21;;;;;;;;;;;18.10;62.70;;;;;;4998487;28;1391;-71
2024/03/23 06:17:47;;;;;;;;;;;18.10;62.70;;;;;;5001158;28;1335;-71
2024/03/23 06:20:13;;;;;;;;;;;18.10;62.70;;;;;;5034492;28;1572;-71
2024/03/23 06:22:38;;;;;;;;;;;18.10;62.70;;;;;;5000520;28;1605;-70
2024/03/23 06:25:04;;;;;;;;;;;18.10;62.70;;;;;;5030675;28;1350;-70
2024/03/23 06:27:31;;;;;;;;;;;18.10;62.70;;;;;;5030620;28;1969;-71
2024/03/23 06:29:57;;;;;;;;;;;18.10;62.60;;;;;;5032485;28;1280;-71
2024/03/23 06:32:23;;;;;;;;;;;18.20;62.70;;;;;;5002088;28;1538;-71
2024/03/23 06:34:48;;;;;;;;;;;18.10;62.60;;;;;;4999157;28;1298;-70
2024/03/23 06:37:14;;;;;;;;;;;18.20;62.60;;;;;;4998995;28;1521;-71
2024/03/23 06:39:39;;;;;;;;;;;18.10;62.50;;;;;;5001687;28;1232;-71
2024/03/23 06:42:05;;;;;;;;;;;18.20;63.30;;;;;;4996744;28;1463;-71
2024/03/23 06:44:30;;;;;;;;;;;18.20;62.60;;;;;;5002660;28;1541;-71
2024/03/23 06:46:56;;;;;;;;;;;18.20;62.50;;;;;;5006309;28;1949;-71
2024/03/23 06:49:22;;;;;;;;;;;18.20;62.50;;;;;;4999141;28;1413;-71
2024/03/23 06:51:47;;;;;;;;;;;18.20;62.50;;;;;;5002719;28;1513;-71
2024/03/23 06:54:13;;;;;;;;;;;18.20;62.50;;;;;;4998929;28;1337;-70
2024/03/23 06:56:38;;;;;;;;;;;18.20;62.50;;;;;;5032381;28;1435;-71
2024/03/23 06:59:04;;;;;;;;;;;18.20;62.50;;;;;;5000992;28;1454;-71
2024/03/23 07:01:29;;;;;;;;;;;18.20;62.50;;;;;;5032143;28;1080;-71
2024/03/23 07:03:55;;;;;;;;;;;18.20;62.50;;;;;;5001317;28;1304;-70
2024/03/23 07:06:21;;;;;;;;;;;18.20;62.50;;;;;;4998635;28;1959;-71
2024/03/23 07:08:46;;;;;;;;;;;18.20;62.50;;;;;;5001260;28;1268;-71
2024/03/23 07:11:12;;;;;;;;;;;18.20;62.50;;;;;;4998762;28;860;-71
2024/03/23 07:13:37;;;;;;;;;;;18.20;62.50;;;;;;5032549;28;1213;-71
2024/03/23 07:16:03;;;;;;;;;;;18.20;62.50;;;;;;5003115;28;1589;-71
2024/03/23 07:18:28;;;;;;;;;;;18.20;62.60;;;;;;5001513;28;1156;-71
2024/03/23 07:20:57;;;;;;;;;;;18.20;62.60;;;;;;5000551;28;1589;-71
2024/03/23 07:23:22;;;;;;;;;;;18.20;62.60;;;;;;5032205;28;1435;-71
2024/03/23 07:25:58;;;;;;;;;;;18.20;62.60;;;;;;5000110;28;1958;-70
2024/03/23 07:28:23;;;;;;;;;;;18.10;62.50;;;;;;5029777;28;1296;-71
2024/03/23 07:31:00;;;;;;;;;;;18.20;62.60;;;;;;4996172;28;1955;-70
2024/03/23 07:33:26;;;;;;;;;;;18.20;62.70;;;;;;5026804;28;2182;-70
2024/03/23 07:35:51;;;;;;;;;;;18.10;62.60;;;;;;4999484;28;1434;-71
2024/03/23 07:38:17;;;;;;;;;;;18.10;62.70;;;;;;5000411;28;1468;-70
2024/03/23 07:40:42;;;;;;;;;;;18.10;62.60;;;;;;5018000;28;1473;-70
2024/03/23 07:43:08;;;;;;;;;;;18.10;62.70;;;;;;4996633;28;1181;-71
2024/03/23 07:45:34;;;;;;;;;;;18.10;62.70;;;;;;5029977;28;1568;-71
2024/03/23 07:47:59;;;;;;;;;;;18.10;62.70;;;;;;4998181;28;1990;-71
2024/03/23 07:50:25;;;;;;;;;;;18.10;62.70;;;;;;4995232;28;1382;-70
2024/03/23 07:52:50;;;;;;;;;;;18.10;62.70;;;;;;4998204;28;1349;-71
2024/03/23 07:55:16;;;;;;;;;;;18.10;62.80;;;;;;5030334;28;2242;-72
2024/03/23 07:57:41;;;;;;;;;;;18.10;62.80;;;;;;5003360;28;2092;-72
2024/03/23 08:00:08;;;;;;;;;;;18.10;62.80;;;;;;4997279;28;2206;-71
2024/03/23 08:02:33;;;;;;;;;;;18.10;62.80;;;;;;5032394;28;1376;-72
2024/03/23 08:04:59;;;;;;;;;;;18.10;62.80;;;;;;5029995;28;1449;-71
2024/03/23 08:07:25;;;;;;;;;;;18.10;62.90;;;;;;5000500;28;2066;-71
2024/03/23 08:09:50;;;;;;;;;;;18.10;62.90;;;;;;5000028;28;1437;-71
2024/03/23 08:12:16;;;;;;;;;;;18.10;62.90;;;;;;4997828;28;1393;-71
2024/03/23 08:14:41;;;;;;;;;;;18.10;62.90;;;;;;5031746;28;1528;-71
2024/03/23 08:17:07;;;;;;;;;;;18.10;62.90;;;;;;5000912;28;1535;-71
2024/03/23 08:19:32;;;;;;;;;;;18.10;62.90;;;;;;4998207;28;1562;-72
2024/03/23 08:21:58;;;;;;;;;;;18.10;62.90;;;;;;5029758;28;1712;-72
2024/03/23 08:24:23;;;;;;;;;;;18.10;62.80;;;;;;4996473;28;1351;-71
2024/03/23 08:26:49;;;;;;;;;;;18.10;62.80;;;;;;5028159;28;1898;-72
2024/03/23 08:29:14;;;;;;;;;;;18.10;62.80;;;;;;5000233;28;1397;-72
2024/03/23 08:31:40;;;;;;;;;;;18.10;62.70;;;;;;4997516;28;1575;-72
2024/03/23 08:34:05;;;;;;;;;;;18.10;62.70;;;;;;5031471;28;1395;-70
2024/03/23 08:36:31;;;;;;;;;;;18.10;62.70;;;;;;5032659;28;1681;-72
2024/03/23 08:38:56;;;;;;;;;;;18.10;62.70;;;;;;5033594;28;1559;-72
2024/03/23 08:41:22;;;;;;;;;;;18.10;63.40;;;;;;5004006;28;1402;-72
2024/03/23 08:43:47;;;;;;;;;;;18.20;62.70;;;;;;5034782;28;1425;-72
2024/03/23 08:46:13;;;;;;;;;;;18.10;62.50;;;;;;5001026;28;1894;-72
2024/03/23 08:48:45;;;;;;;;;;;18.20;62.60;;;;;;5004230;28;1484;-70
2024/03/23 08:51:11;;;;;;;;;;;18.20;62.60;;;;;;5002723;28;1333;-72
2024/03/23 08:53:37;;;;;;;;;;;18.20;62.60;;;;;;5032053;28;1413;-72
2024/03/23 08:56:02;;;;;;;;;;;18.20;62.60;;;;;;5019886;28;1682;-72
2024/03/23 08:58:28;;;;;;;;;;;18.20;62.50;;;;;;5034321;28;1628;-72
2024/03/23 09:00:56;;;;;;;;;;;18.20;62.60;;;;;;5035858;28;1490;-72
2024/03/23 09:03:24;;;;;;;;;;;18.20;62.50;;;;;;5032206;28;1589;-72
2024/03/23 09:05:50;;;;;;;;;;;18.20;62.50;;;;;;5000850;28;2043;-72
2024/03/23 09:08:16;;;;;;;;;;;18.20;62.50;;;;;;5036738;28;1565;-72
2024/03/23 09:10:41;;;;;;;;;;;18.20;62.50;;;;;;5003380;28;1494;-71
2024/03/23 09:13:07;;;;;;;;;;;18.20;63.20;;;;;;5005519;28;1480;-71
2024/03/23 09:15:33;;;;;;;;;;;18.20;62.40;;;;;;5034399;28;1791;-71
2024/03/23 09:17:59;;;;;;;;;;;18.20;62.40;;;;;;5002524;28;1655;-72
2024/03/23 09:20:25;;;;;;;;;;;18.20;62.30;;;;;;5034235;28;1459;-72
2024/03/23 09:22:50;;;;;;;;;;;18.20;62.30;;;;;;5036929;28;1110;-72
2024/03/23 09:25:16;;;;;;;;;;;18.30;62.40;;;;;;5031877;28;1462;-72
2024/03/23 09:27:41;;;;;;;;;;;18.20;62.30;;;;;;5002572;28;1930;-72
2024/03/23 09:30:07;;;;;;;;;;;18.30;62.40;;;;;;5032897;28;1687;-71
2024/03/23 09:32:32;;;;;;;;;;;18.30;62.30;;;;;;5000149;28;1575;-72
2024/03/23 09:34:58;;;;;;;;;;;18.30;62.30;;;;;;5000196;28;1532;-72
2024/03/23 09:37:23;;;;;;;;;;;18.30;62.30;;;;;;5002591;28;1241;-71
2024/03/23 09:39:49;;;;;;;;;;;18.30;62.30;;;;;;5002069;28;1683;-72
2024/03/23 09:42:14;;;;;;;;;;;18.30;62.30;;;;;;5001502;28;1524;-72
2024/03/23 09:44:40;;;;;;;;;;;18.30;62.30;;;;;;5017704;28;1468;-71
2024/03/23 09:47:05;;;;;;;;;;;18.30;62.30;;;;;;5002668;28;1957;-71
2024/03/23 09:49:32;;;;;;;;;;;18.30;62.30;;;;;;5028628;28;1504;-72
2024/03/23 09:51:57;;;;;;;;;;;18.30;62.20;;;;;;5032787;28;1433;-71
2024/03/23 09:54:23;;;;;;;;;;;18.30;62.30;;;;;;5032950;28;1300;-72
2024/03/23 09:56:48;;;;;;;;;;;18.30;62.30;;;;;;5050626;28;1720;-72
2024/03/23 09:59:14;;;;;;;;;;;18.30;62.20;;;;;;5002100;28;1472;-72
2024/03/23 10:01:39;;;;;;;;;;;18.30;62.30;;;;;;5035959;28;1245;-72
2024/03/23 10:04:05;;;;;;;;;;;18.30;62.40;;;;;;5032886;28;1301;-72
2024/03/23 10:06:30;;;;;;;;;;;18.20;62.20;;;;;;5032111;28;1902;-72
2024/03/23 10:08:56;;;;;;;;;;;18.30;62.30;;;;;;5020290;28;1571;-72
2024/03/23 10:11:22;;;;;;;;;;;18.20;62.30;;;;;;5002178;28;958;-72
2024/03/23 10:13:48;;;;;;;;;;;18.20;62.30;;;;;;5003968;28;1264;-71
2024/03/23 10:16:23;;;;;;;;;;;18.20;62.30;;;;;;5001822;28;1366;-72
2024/03/23 10:18:49;;;;;;;;;;;18.20;62.40;;;;;;4999157;28;1545;-72
2024/03/23 10:21:14;;;;;;;;;;;18.20;62.40;;;;;;4997436;28;1550;-71
2024/03/23 10:23:41;;;;;;;;;;;18.20;62.50;;;;;;5030369;28;1756;-72
2024/03/23 10:26:20;;;;;;;;;;;18.20;62.50;;;;;;5000660;28;1898;-71
2024/03/23 10:28:51;;;;;;;;;;;18.20;62.50;;;;;;5016218;28;1587;-72
2024/03/23 10:31:17;;;;;;;;;;;18.20;62.50;;;;;;5031838;28;1857;-73
2024/03/23 10:33:49;;;;;;;;;;;18.20;62.50;;;;;;5032339;28;1513;-72
2024/03/23 10:36:15;;;;;;;;;;;18.20;62.60;;;;;;4999832;28;1560;-71
2024/03/23 10:38:40;;;;;;;;;;;18.20;62.60;;;;;;4998724;28;1687;-71
2024/03/23 10:41:06;;;;;;;;;;;18.20;62.50;;;;;;5001398;28;1419;-71
2024/03/23 10:43:31;;;;;;;;;;;18.20;62.60;;;;;;5019123;28;1635;-71
2024/03/23 10:45:58;;;;;;;;;;;18.20;62.50;;;;;;5033627;28;1902;-71
2024/03/23 10:48:23;;;;;;;;;;;18.20;62.50;;;;;;4999084;28;1236;-72
2024/03/23 10:50:48;;;;;;;;;;;18.20;62.50;;;;;;5032618;28;1295;-72
2024/03/23 10:53:14;;;;;;;;;;;18.20;62.50;;;;;;5032262;28;1292;-72
2024/03/23 10:55:39;;;;;;;;;;;18.20;62.50;;;;;;5033444;28;1495;-72
2024/03/23 10:58:05;;;;;;;;;;;18.20;62.50;;;;;;5031368;28;1849;-71
2024/03/23 11:00:30;;;;;;;;;;;18.20;62.50;;;;;;5033273;28;1480;-71
2024/03/23 11:02:56;;;;;;;;;;;18.20;62.40;;;;;;5033088;28;2290;-72
2024/03/23 11:05:24;;;;;;;;;;;18.20;62.40;;;;;;5001599;28;1379;-71
2024/03/23 11:07:50;;;;;;;;;;;18.20;62.40;;;;;;5003000;28;1906;-72
2024/03/23 11:10:29;;;;;;;;;;;18.20;62.40;;;;;;5033641;28;1289;-73
2024/03/23 11:12:54;;;;;;;;;;;18.20;62.40;;;;;;5000282;28;1543;-71
2024/03/23 11:15:20;;;;;;;;;;;18.20;62.40;;;;;;4998860;28;1376;-72
2024/03/23 11:18:04;;;;;;;;;;;18.20;62.40;;;;;;4999345;28;1453;-72
2024/03/23 11:20:33;;;;;;;;;;;18.20;62.40;;;;;;5028999;28;1166;-71
2024/03/23 11:22:59;;;;;;;;;;;18.20;62.40;;;;;;4998390;28;1532;-72
2024/03/23 11:25:25;;;;;;;;;;;18.20;62.40;;;;;;5002927;28;1623;-72
2024/03/23 11:27:51;;;;;;;;;;;18.20;62.40;;;;;;5032259;28;1922;-72
2024/03/23 11:30:17;;;;;;;;;;;18.20;62.40;;;;;;5030453;28;1479;-72
2024/03/23 11:32:43;;;;;;;;;;;18.20;62.40;;;;;;5030659;28;1492;-71
2024/03/23 11:35:12;;;;;;;;;;;18.20;62.40;;;;;;4999202;28;1304;-72
2024/03/23 11:37:37;;;;;;;;;;;18.20;62.40;;;;;;5018906;28;1384;-73
2024/03/23 11:40:18;;;;;;;;;;;18.20;62.40;;;;;;4998598;28;1438;-72
2024/03/23 11:42:44;;;;;;;;;;;18.20;62.40;;;;;;5000403;28;1480;-72
2024/03/23 11:45:09;;;;;;;;;;;18.20;63.10;;;;;;5029079;28;1511;-71
2024/03/23 11:47:35;;;;;;;;;;;18.20;62.40;;;;;;4998361;28;2048;-72
2024/03/23 11:50:00;;;;;;;;;;;18.20;62.40;;;;;;5036271;28;1473;-72
2024/03/23 11:52:26;;;;;;;;;;;18.20;62.40;;;;;;5007622;28;1328;-72
2024/03/23 11:54:51;;;;;;;;;;;18.30;62.40;;;;;;5016181;28;2209;-71
2024/03/23 11:57:17;;;;;;;;;;;18.20;62.40;;;;;;5000986;28;1248;-71
2024/03/23 11:59:44;;;;;;;;;;;18.20;62.40;;;;;;5032200;28;1385;-70
2024/03/23 12:02:10;;;;;;;;;;;18.20;62.30;;;;;;5029752;28;1258;-71
2024/03/23 12:04:36;;;;;;;;;;;18.20;62.40;;;;;;5029793;28;1403;-71
2024/03/23 12:07:14;;;;;;;;;;;18.20;62.30;;;;;;4997910;28;1977;-71
2024/03/23 12:09:40;;;;;;;;;;;18.20;62.40;;;;;;4998004;28;1150;-71
2024/03/23 12:12:18;;;;;;;;;;;18.30;62.40;;;;;;5027350;28;1770;-71
2024/03/23 12:15:00;;;;;;;;;;;18.30;62.40;;;;;;5027365;28;1756;-72
2024/03/23 12:17:26;;;;;;;;;;;18.20;62.30;;;;;;5046929;28;1637;-70
2024/03/23 12:19:52;;;;;;;;;;;18.30;62.40;;;;;;5038135;28;1246;-70
2024/03/23 12:22:21;;;;;;;;;;;18.30;62.40;;;;;;4999205;28;1386;-70
2024/03/23 12:24:47;;;;;;;;;;;18.20;63.10;;;;;;5005065;28;1379;-70
2024/03/23 12:27:12;;;;;;;;;;;18.20;62.30;;;;;;5010193;28;1894;-71
2024/03/23 12:29:39;;;;;;;;;;;18.30;62.40;;;;;;5008606;28;971;-71
2024/03/23 12:32:04;;;;;;;;;;;18.30;62.40;;;;;;5005951;28;1567;-71
2024/03/23 12:34:30;;;;;;;;;;;18.30;62.40;;;;;;5010211;28;1245;-70
2024/03/23 12:36:55;;;;;;;;;;;18.20;62.30;;;;;;5037855;28;1148;-70
2024/03/23 12:39:21;;;;;;;;;;;18.30;62.40;;;;;;5006408;28;1091;-70
2024/03/23 12:41:47;;;;;;;;;;;18.30;62.40;;;;;;5035631;28;1006;-70
2024/03/23 12:44:13;;;;;;;;;;;18.30;62.40;;;;;;5039013;28;1288;-69
2024/03/23 12:46:39;;;;;;;;;;;18.30;62.40;;;;;;5000594;28;1898;-70
2024/03/23 12:49:05;;;;;;;;;;;18.30;62.40;;;;;;5031761;28;1256;-70
2024/03/23 12:51:30;;;;;;;;;;;18.30;62.40;;;;;;5006383;28;1285;-69
2024/03/23 12:53:56;;;;;;;;;;;18.30;62.30;;;;;;4996888;28;1390;-70
2024/03/23 12:56:21;;;;;;;;;;;18.30;62.30;;;;;;5029925;28;1663;-70
2024/03/23 12:58:51;;;;;;;;;;;18.30;62.30;;;;;;4998776;28;962;-70
2024/03/23 13:01:19;;;;;;;;;;;18.30;62.30;;;;;;4997844;28;1691;-70
2024/03/23 13:03:47;;;;;;;;;;;18.30;62.20;;;;;;4999336;28;1635;-70
2024/03/23 13:06:13;;;;;;;;;;;18.30;62.10;;;;;;5028272;28;1910;-70
2024/03/23 13:08:40;;;;;;;;;;;18.40;62.20;;;;;;4998229;28;1366;-70
2024/03/23 13:11:05;;;;;;;;;;;18.40;62.80;;;;;;5029578;28;1585;-70
2024/03/23 13:13:31;;;;;;;;;;;18.40;62.10;;;;;;4998019;28;1508;-70
2024/03/23 13:15:57;;;;;;;;;;;18.40;62.10;;;;;;5029694;28;1388;-69
2024/03/23 13:18:22;;;;;;;;;;;18.40;62.70;;;;;;4997720;28;1096;-70
2024/03/23 13:20:48;;;;;;;;;;;18.40;62.00;;;;;;5001249;28;1334;-70
2024/03/23 13:23:13;;;;;;;;;;;18.40;62.00;;;;;;4998435;28;1343;-70
2024/03/23 13:25:39;;;;;;;;;;;18.40;61.90;;;;;;5008284;28;1681;-70
2024/03/23 13:28:04;;;;;;;;;;;18.40;61.90;;;;;;4999943;28;1961;-70
2024/03/23 13:30:30;;;;;;;;;;;18.40;61.90;;;;;;5001594;28;1537;-70
2024/03/23 13:32:55;;;;;;;;;;;18.40;61.80;;;;;;5032949;28;1566;-70
2024/03/23 13:35:21;;;;;;;;;;;18.40;61.80;;;;;;5032863;28;1614;-70
2024/03/23 13:37:46;;;;;;;;;;;18.40;61.80;;;;;;5009189;28;1603;-70
2024/03/23 13:40:12;;;;;;;;;;;18.40;61.70;;;;;;5005843;28;1039;-70
2024/03/23 13:42:37;;;;;;;;;;;18.40;61.80;;;;;;5030219;28;1622;-70
2024/03/23 13:45:04;;;;;;;;;;;18.40;61.70;;;;;;5000385;28;1775;-70
2024/03/23 13:47:29;;;;;;;;;;;18.40;61.70;;;;;;5002503;28;1902;-70
2024/03/23 13:49:55;;;;;;;;;;;18.40;61.70;;;;;;5003010;28;1237;-70
2024/03/23 13:52:22;;;;;;;;;;;18.50;61.80;;;;;;5002649;28;1278;-70
2024/03/23 13:54:48;;;;;;;;;;;18.50;61.70;;;;;;5000374;28;1787;-70
2024/03/23 13:57:14;;;;;;;;;;;18.50;61.70;;;;;;4997462;28;1353;-70
2024/03/23 13:59:39;;;;;;;;;;;18.50;61.70;;;;;;5001951;28;1475;-70
2024/03/23 14:02:05;;;;;;;;;;;18.50;61.70;;;;;;5001092;28;1467;-70
2024/03/23 14:04:30;;;;;;;;;;;18.50;61.70;;;;;;5005496;28;1506;-70
2024/03/23 14:06:55;;;;;;;;;;;18.50;61.70;;;;;;5001508;28;1906;-70
2024/03/23 14:09:23;;;;;;;;;;;18.50;61.70;;;;;;5002398;28;1455;-70
2024/03/23 14:11:48;;;;;;;;;;;18.50;61.70;;;;;;5003808;28;1379;-70
2024/03/23 14:14:16;;;;;;;;;;;18.50;61.70;;;;;;5031801;28;1587;-70
2024/03/23 14:16:42;;;;;;;;;;;18.50;61.70;;;;;;4997322;28;1583;-70
2024/03/23 14:19:08;;;;;;;;;;;18.50;61.70;;;;;;5034870;28;1957;-70
2024/03/23 14:21:34;;;;;;;;;;;18.50;61.70;;;;;;5003720;28;1549;-70
2024/03/23 14:24:00;;;;;;;;;;;18.50;61.70;;;;;;5033998;28;1494;-70